Time;durP1;ratioP1;P1;durP2;ratioP2;P2;SDS_P1;SDS_P2;PMS_P1;PMS_P2;Temp;Humidity;BMP_temperature;BMP_pressure;BME280_temperature;BME280_humidity;BME280_pressure;Samples;Min_cycle;Max_cycle;Signal;HPM_P1;HPM_P2
2022/05/08 00:00:39;;;;;;;3.28;2.30;;;;;;;19.78;45.03;96682.97;5013970;28;20495;-29
2022/05/08 00:03:04;;;;;;;3.35;1.95;;;;;;;19.78;45.04;96676.75;5013908;28;20022;-30
2022/05/08 00:05:30;;;;;;;3.35;1.85;;;;;;;19.70;45.22;96677.13;5013804;28;20014;-29
2022/05/08 00:07:55;;;;;;;4.38;2.00;;;;;;;19.70;45.14;96679.13;5013734;28;20477;-29
2022/05/08 00:10:21;;;;;;;4.90;1.80;;;;;;;19.65;45.20;96675.09;5013785;28;20025;-30
2022/05/08 00:12:46;;;;;;;2.63;1.88;;;;;;;19.67;45.47;96677.31;5013762;28;20029;-29
2022/05/08 00:15:12;;;;;;;3.33;2.03;;;;;;;19.68;45.16;96665.84;5013771;28;20041;-30
2022/05/08 00:17:38;;;;;;;3.10;1.80;;;;;;;19.70;45.23;96673.63;5047886;28;20120;-29
2022/05/08 00:20:06;;;;;;;2.53;2.00;;;;;;;19.65;45.12;96669.59;5017854;28;20022;-30
2022/05/08 00:22:31;;;;;;;2.25;1.95;;;;;;;19.65;45.42;96672.34;5013382;28;20030;-30
2022/05/08 00:24:57;;;;;;;3.55;2.45;;;;;;;19.63;45.22;96668.53;5013547;28;20110;-29
2022/05/08 00:27:23;;;;;;;4.57;2.30;;;;;;;19.69;44.92;96674.84;5030863;28;20017;-30
2022/05/08 00:29:48;;;;;;;2.60;2.20;;;;;;;19.61;45.52;96673.75;5033326;28;20040;-30
2022/05/08 00:32:14;;;;;;;3.05;1.92;;;;;;;19.68;45.07;96668.59;5028995;28;20018;-31
2022/05/08 00:34:39;;;;;;;3.47;2.22;;;;;;;19.61;45.42;96669.03;5013525;28;20026;-31
2022/05/08 00:37:07;;;;;;;6.80;2.40;;;;;;;19.68;45.17;96663.09;5013453;28;20068;-30
2022/05/08 00:39:33;;;;;;;5.20;1.85;;;;;;;19.68;45.32;96665.84;5013290;28;20053;-30
2022/05/08 00:41:59;;;;;;;4.13;1.95;;;;;;;19.67;45.45;96663.56;5023548;28;20503;-30
2022/05/08 00:44:25;;;;;;;5.07;2.53;;;;;;;19.71;45.13;96666.88;5032948;28;20079;-30
2022/05/08 00:46:50;;;;;;;4.30;2.30;;;;;;;19.74;45.20;96665.94;5033089;28;20026;-30
2022/05/08 00:49:16;;;;;;;3.08;2.38;;;;;;;19.71;45.22;96666.88;5027437;28;20464;-30
2022/05/08 00:51:47;;;;;;;4.03;2.25;;;;;;;19.58;45.56;96664.47;5025287;28;20036;-30
2022/05/08 00:54:13;;;;;;;3.28;1.98;;;;;;;19.61;45.37;96663.50;5013296;28;20029;-29
2022/05/08 00:56:38;;;;;;;4.25;1.98;;;;;;;19.66;45.27;96665.56;5013442;28;20026;-30
2022/05/08 00:59:04;;;;;;;2.58;2.00;;;;;;;19.58;45.39;96663.72;5013192;28;20444;-30
2022/05/08 01:01:29;;;;;;;3.10;2.00;;;;;;;19.64;45.41;96670.81;5018988;28;20052;-30
2022/05/08 01:03:55;;;;;;;2.47;2.00;;;;;;;19.60;45.20;96666.75;5032349;28;20044;-31
2022/05/08 01:06:20;;;;;;;2.55;2.35;;;;;;;19.64;45.39;96662.56;5031777;28;20040;-32
2022/05/08 01:08:48;;;;;;;4.35;2.20;;;;;;;19.60;45.29;96664.75;5031910;28;20072;-30
2022/05/08 01:11:14;;;;;;;3.58;2.03;;;;;;;19.63;45.09;96665.78;5036434;28;20488;-30
2022/05/08 01:13:41;;;;;;;3.63;2.20;;;;;;;19.61;45.24;96666.25;5036521;28;20037;-29
2022/05/08 01:16:09;;;;;;;6.10;2.05;;;;;;;19.57;45.49;96667.69;5036744;28;20572;-29
2022/05/08 01:18:34;;;;;;;2.95;2.10;;;;;;;19.56;45.45;96671.69;5028191;28;20038;-30
2022/05/08 01:21:00;;;;;;;2.90;2.00;;;;;;;19.59;45.48;96657.72;5016800;28;20033;-32
2022/05/08 01:23:25;;;;;;;5.30;2.13;;;;;;;19.58;45.46;96664.47;5029433;28;20051;-30
2022/05/08 01:25:56;;;;;;;3.05;2.03;;;;;;;19.62;45.56;96667.78;5015420;28;20408;-30
2022/05/08 01:28:23;;;;;;;4.18;2.20;;;;;;;19.59;45.46;96657.72;5023124;28;20072;-30
2022/05/08 01:30:51;;;;;;;2.83;1.98;;;;;;;19.55;45.63;96670.91;5036366;28;20021;-30
2022/05/08 01:33:17;;;;;;;4.05;2.38;;;;;;;19.57;45.56;96667.69;5018847;28;20038;-30
2022/05/08 01:35:43;;;;;;;4.38;2.22;;;;;;;19.27;46.48;96669.78;5016601;28;20032;-30
2022/05/08 01:38:11;;;;;;;2.78;2.05;;;;;;;19.45;45.68;96663.25;5021833;28;20029;-31
2022/05/08 01:40:37;;;;;;;3.42;2.03;;;;;;;19.55;45.58;96670.91;5030850;28;20080;-29
2022/05/08 01:43:03;;;;;;;4.28;2.13;;;;;;;19.53;45.62;96667.91;5016294;28;20026;-30
2022/05/08 01:45:29;;;;;;;4.28;2.15;;;;;;;19.57;45.47;96668.44;5016284;28;20090;-30
2022/05/08 01:50:39;;;;;;;3.35;2.45;;;;;;;19.54;45.52;96674.91;5036172;28;20052;-29
2022/05/08 01:53:05;;;;;;;3.60;2.28;;;;;;;19.46;45.48;96668.28;5036103;28;20412;-30
2022/05/08 01:55:31;;;;;;;3.60;2.22;;;;;;;19.54;45.62;96672.16;5031735;28;20436;-30
2022/05/08 01:57:57;;;;;;;2.95;2.00;;;;;;;19.52;45.68;96669.16;5014425;28;20431;-30
2022/05/08 02:00:23;;;;;;;3.00;2.38;;;;;;;19.55;45.52;96670.91;5015172;28;20104;-29
2022/05/08 02:02:49;;;;;;;4.35;2.08;;;;;;;19.52;45.47;96669.16;5015795;28;20479;-31
2022/05/08 02:05:22;;;;;;;5.53;2.25;;;;;;;19.56;45.23;96666.19;5015989;28;20028;-29
2022/05/08 02:07:48;;;;;;;;;;;;;;;19.46;45.66;96668.28;5023923;28;20018;-30
2022/05/08 02:10:15;;;;;;;3.30;2.30;;;;;;;19.45;45.50;96668.75;5015790;28;19936;-30
2022/05/08 02:12:41;;;;;;;4.05;2.30;;;;;;;19.47;45.43;96671.78;5016134;28;20030;-30
2022/05/08 02:15:09;;;;;;;3.22;2.50;;;;;;;19.54;45.35;96669.41;5015874;28;20018;-29
2022/05/08 02:17:35;;;;;;;5.95;2.20;;;;;;;19.50;45.63;96668.88;5016845;28;20021;-29
2022/05/08 02:20:02;;;;;;;4.25;2.47;;;;;;;19.47;45.57;96675.28;5015349;28;20029;-30
2022/05/08 02:22:27;;;;;;;3.67;2.30;;;;;;;19.47;45.49;96675.28;5015538;28;20026;-29
2022/05/08 02:24:53;;;;;;;4.13;2.10;;;;;;;19.48;45.40;96671.31;5015568;28;20495;-29
2022/05/08 02:27:18;;;;;;;3.78;1.70;;;;;;;19.44;45.43;96669.97;5015264;28;20534;-30
2022/05/08 02:29:51;;;;;;;2.33;1.92;;;;;;;19.45;45.44;96666.00;5035244;28;20037;-30
2022/05/08 02:32:17;;;;;;;6.28;2.30;;;;;;;19.47;45.39;96674.53;5035239;28;20033;-29
2022/05/08 02:34:44;;;;;;;2.90;1.95;;;;;;;19.47;45.50;96677.28;5035154;28;20026;-29
2022/05/08 02:37:09;;;;;;;3.08;2.30;;;;;;;19.44;45.54;96672.72;5035340;28;20032;-29
2022/05/08 02:39:35;;;;;;;3.30;2.08;;;;;;;19.43;45.55;96680.22;5016213;28;20022;-30
2022/05/08 02:42:00;;;;;;;4.13;2.17;;;;;;;19.45;45.30;96675.00;5015217;28;20121;-29
2022/05/08 02:44:26;;;;;;;4.75;2.20;;;;;;;19.49;45.53;96667.34;4994247;28;20026;-29
2022/05/08 02:46:51;;;;;;;2.22;1.90;;;;;;;19.44;45.60;96664.47;4995686;28;20018;-29
2022/05/08 02:49:17;;;;;;;5.25;2.42;;;;;;;19.48;45.64;96665.81;5011577;28;20488;-29
2022/05/08 02:51:42;;;;;;;3.47;2.40;;;;;;;19.53;45.29;96672.66;5014983;28;20025;-30
2022/05/08 02:54:08;;;;;;;2.35;2.15;;;;;;;19.50;45.50;96668.88;5031882;28;20476;-30
2022/05/08 02:59:17;;;;;;;2.60;1.73;;;;;;;19.27;45.91;96672.50;5019585;28;20040;-29
2022/05/08 03:01:44;;;;;;;2.38;2.00;;;;;;;19.39;45.66;96663.19;5034695;28;20029;-30
2022/05/08 03:04:10;;;;;;;4.30;2.20;;;;;;;19.42;45.66;96677.94;5030340;28;20108;-29
2022/05/08 03:06:35;;;;;;;4.05;2.15;;;;;;;19.31;45.95;96667.56;5034894;28;20124;-30
2022/05/08 03:09:01;;;;;;;5.05;2.15;;;;;;;19.44;45.65;96668.00;5034205;28;20025;-32
2022/05/08 03:11:26;;;;;;;5.22;2.00;;;;;;;19.45;45.52;96666.75;5034292;28;20033;-29
2022/05/08 03:13:53;;;;;;;4.97;2.00;;;;;;;19.43;45.61;96663.72;5022363;28;20037;-30
2022/05/08 03:16:19;;;;;;;3.63;2.65;;;;;;;19.42;45.63;96670.47;5014693;28;20464;-30
2022/05/08 03:18:45;;;;;;;6.10;2.45;;;;;;;19.28;46.04;96671.28;5030879;28;20032;-30
2022/05/08 03:21:12;;;;;;;3.50;2.00;;;;;;;19.29;45.89;96662.53;5034220;28;20041;-30
2022/05/08 03:23:43;;;;;;;3.95;2.20;;;;;;;19.42;45.68;96662.22;5024612;28;20033;-29
2022/05/08 03:26:09;;;;;;;3.28;2.20;;;;;;;19.30;46.03;96666.03;5014303;28;20030;-30
2022/05/08 03:28:38;;;;;;;3.92;2.25;;;;;;;19.28;45.89;96663.78;5015759;28;20025;-29
2022/05/08 03:31:04;;;;;;;3.25;1.90;;;;;;;19.43;45.86;96668.47;5033569;28;20021;-29
2022/05/08 03:33:30;;;;;;;5.13;1.90;;;;;;;19.41;45.69;96660.69;5033593;28;20526;-31
2022/05/08 03:35:56;;;;;;;3.45;1.88;;;;;;;19.40;45.65;96669.44;5034044;28;20056;-29
2022/05/08 03:38:21;;;;;;;5.13;2.10;;;;;;;19.44;45.59;96676.25;5034007;28;20053;-29
2022/05/08 03:40:47;;;;;;;3.97;2.20;;;;;;;19.33;45.85;96665.84;5033869;28;20447;-30
2022/05/08 03:43:24;;;;;;;4.30;1.90;;;;;;;19.20;46.44;96670.91;5032762;28;20044;-30
2022/05/08 03:45:51;;;;;;;3.20;1.70;;;;;;;19.34;45.86;96666.59;5033630;28;20025;-30
2022/05/08 03:48:20;;;;;;;5.70;2.30;;;;;;;19.34;45.79;96666.59;5032793;28;20031;-31
2022/05/08 03:50:46;;;;;;;4.40;1.85;;;;;;;19.36;45.66;96661.38;5034046;28;20108;-30
2022/05/08 03:53:12;;;;;;;2.65;2.10;;;;;;;19.33;45.83;96662.34;5029169;28;20056;-29
2022/05/08 03:55:37;;;;;;;1.98;1.73;;;;;;;19.31;45.93;96662.06;5014004;28;20033;-30
2022/05/08 03:58:03;;;;;;;2.28;1.50;;;;;;;19.34;45.75;96656.38;5014182;28;20064;-29
2022/05/08 04:00:28;;;;;;;5.35;1.73;;;;;;;19.34;45.93;96661.88;5014066;28;20025;-30
2022/05/08 04:02:54;;;;;;;2.78;1.48;;;;;;;19.23;46.07;96667.22;5014244;28;20053;-30
2022/05/08 04:05:20;;;;;;;3.10;1.55;;;;;;;19.27;46.06;96667.03;5014006;28;20026;-30
2022/05/08 04:07:46;;;;;;;3.45;2.03;;;;;;;19.33;45.75;96656.84;5013943;28;20029;-29
2022/05/08 04:10:15;;;;;;;4.22;1.70;;;;;;;19.36;45.75;96666.88;5013743;28;20026;-30
2022/05/08 04:12:44;;;;;;;3.25;1.70;;;;;;;19.37;45.72;96677.41;5013653;28;20032;-33
2022/05/08 04:17:54;;;;;;;3.53;1.58;;;;;;;19.27;46.07;96672.50;5015569;28;20519;-30
2022/05/08 04:20:20;;;;;;;3.08;1.83;;;;;;;19.33;45.92;96665.09;5033575;28;20029;-29
2022/05/08 04:25:29;;;;;;;4.55;2.10;;;;;;;19.30;46.00;96675.03;4994006;28;20022;-30
2022/05/08 04:27:55;;;;;;;3.20;1.75;;;;;;;19.33;45.79;96665.84;4994490;28;20026;-31
2022/05/08 04:30:20;;;;;;;2.47;1.80;;;;;;;19.35;45.89;96679.13;5013399;28;20032;-30
2022/05/08 04:32:46;;;;;;;2.67;1.92;;;;;;;19.36;45.85;96686.13;5013821;28;20476;-30
2022/05/08 04:35:11;;;;;;;3.05;1.60;;;;;;;19.35;45.77;96682.63;5013607;28;20522;-30
2022/05/08 04:37:37;;;;;;;3.92;2.33;;;;;;;19.30;45.88;96693.53;5014411;28;20029;-29
2022/05/08 04:40:03;;;;;;;2.88;1.98;;;;;;;19.32;46.07;96697.34;5033184;28;20471;-30
2022/05/08 04:42:28;;;;;;;5.20;1.67;;;;;;;19.32;45.87;96702.06;5034496;28;20067;-30
2022/05/08 04:44:54;;;;;;;3.78;2.00;;;;;;;19.31;46.00;96695.06;5019510;28;20045;-30
2022/05/08 04:47:20;;;;;;;2.25;1.73;;;;;;;19.34;46.01;96702.34;5017572;28;20399;-30
2022/05/08 04:49:46;;;;;;;3.03;1.73;;;;;;;19.16;46.49;96702.59;5035215;28;20041;-30
2022/05/08 04:52:12;;;;;;;4.25;2.00;;;;;;;19.24;46.04;96707.22;5037310;28;20028;-29
2022/05/08 04:54:38;;;;;;;2.88;1.67;;;;;;;19.31;46.04;96712.31;5022675;28;20018;-29
2022/05/08 04:57:03;;;;;;;4.25;1.98;;;;;;;19.14;46.58;96705.06;5017214;28;20022;-30
2022/05/08 04:59:31;;;;;;;4.65;2.13;;;;;;;19.25;46.26;96702.47;5021258;28;20040;-32
2022/05/08 05:01:57;;;;;;;3.95;1.83;;;;;;;19.23;46.26;96702.94;5036858;28;20108;-29
2022/05/08 05:04:22;;;;;;;2.10;1.85;;;;;;;19.31;46.10;96706.81;5021420;28;20022;-29
2022/05/08 05:06:49;;;;;;;2.47;1.88;;;;;;;19.30;46.11;96699.78;5017217;28;20030;-29
2022/05/08 05:09:14;;;;;;;3.95;1.70;;;;;;;19.31;46.17;96700.56;5016545;28;20025;-30
2022/05/08 05:11:40;;;;;;;5.00;1.95;;;;;;;19.17;46.47;96712.34;5017095;28;20076;-29
2022/05/08 05:14:05;;;;;;;3.38;1.88;;;;;;;19.33;46.08;96707.09;5026523;28;20025;-30
2022/05/08 05:16:31;;;;;;;3.75;2.35;;;;;;;19.24;46.27;96704.47;5027724;28;20449;-29
2022/05/08 05:18:56;;;;;;;4.03;1.80;;;;;;;19.30;46.13;96704.53;5016744;28;20097;-29
2022/05/08 05:21:22;;;;;;;3.58;1.80;;;;;;;19.30;46.19;96710.03;5016672;28;20018;-29
2022/05/08 05:23:48;;;;;;;2.88;1.80;;;;;;;19.33;46.09;96709.09;5015730;28;20041;-30
2022/05/08 05:26:13;;;;;;;3.83;2.03;;;;;;;19.26;46.30;96709.50;5016604;28;20021;-30
2022/05/08 05:28:39;;;;;;;3.05;1.80;;;;;;;19.30;46.31;96710.03;5016674;28;20472;-29
2022/05/08 05:31:05;;;;;;;2.80;1.80;;;;;;;19.26;46.35;96709.50;5035456;28;20034;-30
2022/05/08 05:33:30;;;;;;;3.70;1.65;;;;;;;19.19;46.54;96713.38;5035787;28;20075;-29
2022/05/08 05:35:55;;;;;;;4.72;2.00;;;;;;;19.31;46.16;96708.81;5036227;28;20033;-30
2022/05/08 05:38:21;;;;;;;2.60;1.63;;;;;;;19.25;46.56;96710.72;5036297;28;20029;-29
2022/05/08 05:40:46;;;;;;;4.28;1.90;;;;;;;19.29;46.20;96716.78;5022567;28;20403;-31
2022/05/08 05:43:12;;;;;;;3.33;2.00;;;;;;;19.34;46.27;96713.34;5016762;28;20028;-29
2022/05/08 05:45:39;;;;;;;3.97;1.80;;;;;;;19.26;46.23;96720.50;5016476;28;20475;-30
2022/05/08 05:48:05;;;;;;;4.65;1.80;;;;;;;19.12;46.76;96715.78;5016200;28;20017;-30
2022/05/08 05:50:30;;;;;;;2.70;1.70;;;;;;;19.18;46.62;96719.34;5016180;28;20387;-29
2022/05/08 05:52:56;;;;;;;2.20;1.75;;;;;;;19.16;46.71;96719.84;5016297;28;20034;-29
2022/05/08 05:55:21;;;;;;;3.67;1.65;;;;;;;19.10;46.93;96723.72;5016445;28;20022;-30
2022/05/08 05:57:47;;;;;;;3.63;1.85;;;;;;;19.17;46.58;96720.56;5036203;28;20021;-30
2022/05/08 06:00:15;;;;;;;2.40;1.80;;;;;;;19.02;47.02;96723.38;4999462;28;20065;-30
2022/05/08 06:02:43;;;;;;;2.63;1.40;;;;;;;19.25;46.54;96724.47;5010907;28;20476;-29
2022/05/08 06:05:13;;;;;;;2.17;1.60;;;;;;;19.25;46.39;96727.97;5014167;28;20038;-31
2022/05/08 06:07:39;;;;;;;5.22;2.15;;;;;;;19.21;46.43;96732.16;5014067;28;20530;-29
2022/05/08 06:10:06;;;;;;;4.15;2.33;;;;;;;19.31;46.35;96731.56;5013860;28;20092;-30
2022/05/08 06:12:32;;;;;;;3.08;1.70;;;;;;;19.27;46.31;96733.00;5013960;28;20488;-30
2022/05/08 06:14:58;;;;;;;3.17;1.98;;;;;;;19.33;46.40;96736.59;5020295;28;20029;-29
2022/05/08 06:17:24;;;;;;;5.70;2.40;;;;;;;19.28;46.47;96729.78;5030808;28;20129;-31
2022/05/08 06:19:49;;;;;;;4.28;2.13;;;;;;;18.97;47.34;96737.75;5020775;28;20032;-30
2022/05/08 06:22:15;;;;;;;3.03;1.90;;;;;;;19.24;46.63;96734.72;5013397;28;20030;-30
2022/05/08 06:24:40;;;;;;;4.00;1.92;;;;;;;19.36;46.28;96730.13;5014177;28;20025;-29
2022/05/08 06:27:06;;;;;;;4.72;1.75;;;;;;;19.31;46.48;96733.56;5017914;28;20053;-31
2022/05/08 06:29:32;;;;;;;4.60;1.95;;;;;;;19.22;46.94;96720.69;4994304;28;20468;-30
2022/05/08 06:31:58;;;;;;;2.80;1.70;;;;;;;19.24;47.00;96729.22;4994017;28;20469;-30
2022/05/08 06:34:24;;;;;;;4.00;1.83;;;;;;;19.18;47.24;96731.09;5018507;28;20049;-30
2022/05/08 06:36:50;;;;;;;2.58;1.67;;;;;;;19.26;47.02;96728.75;5030175;28;20030;-29
2022/05/08 06:39:16;;;;;;;4.22;2.00;;;;;;;19.19;47.42;96727.13;5013138;28;20441;-30
2022/05/08 06:41:41;;;;;;;4.65;2.17;;;;;;;19.24;47.21;96734.72;5012950;28;20033;-29
2022/05/08 06:44:08;;;;;;;2.28;1.77;;;;;;;19.20;47.42;96738.88;5013045;28;20495;-30
2022/05/08 06:46:36;;;;;;;3.00;1.83;;;;;;;19.25;47.19;96732.72;5012993;28;20030;-29
2022/05/08 06:49:03;;;;;;;2.60;1.80;;;;;;;19.24;47.17;96736.72;5013955;28;20099;-30
2022/05/08 06:51:28;;;;;;;5.15;2.08;;;;;;;19.21;47.44;96734.91;5010869;28;20029;-30
2022/05/08 06:53:54;;;;;;;4.07;1.95;;;;;;;19.22;47.27;96739.16;5020997;28;20037;-29
2022/05/08 06:56:20;;;;;;;3.13;1.98;;;;;;;19.27;47.15;96735.75;5031294;28;20068;-30
2022/05/08 07:01:35;;;;;;;3.15;1.70;;;;;;;19.08;47.74;96737.19;5019548;28;20032;-31
2022/05/08 07:04:02;;;;;;;2.67;2.05;;;;;;;19.15;47.71;96734.06;5028779;28;20364;-31
2022/05/08 07:06:28;;;;;;;2.78;1.95;;;;;;;19.14;47.58;96744.31;5029468;28;20508;-30
2022/05/08 07:08:54;;;;;;;2.03;1.60;;;;;;;19.19;47.51;96742.88;5012949;28;20033;-30
2022/05/08 07:11:19;;;;;;;5.88;1.95;;;;;;;19.18;47.59;96741.34;5012587;28;20388;-30
2022/05/08 07:13:44;;;;;;;4.35;2.00;;;;;;;18.86;48.26;96741.09;5017728;28;20116;-30
2022/05/08 07:16:10;;;;;;;5.88;2.53;;;;;;;19.19;47.64;96740.13;5031607;28;20491;-29
2022/05/08 07:18:35;;;;;;;4.10;2.03;;;;;;;19.19;47.47;96734.63;5031389;28;20036;-30
2022/05/08 07:21:01;;;;;;;1.83;1.50;;;;;;;19.20;47.30;96745.13;5032467;28;20029;-29
2022/05/08 07:23:26;;;;;;;4.35;1.85;;;;;;;19.15;47.38;96747.81;5032175;28;20399;-30
2022/05/08 07:25:52;;;;;;;3.53;1.65;;;;;;;19.23;47.12;96746.19;5032141;28;20069;-30
2022/05/08 07:28:17;;;;;;;2.55;1.73;;;;;;;19.11;47.55;96741.75;5030244;28;20030;-29
2022/05/08 07:30:43;;;;;;;3.03;1.98;;;;;;;19.24;47.34;96751.22;5031552;28;20082;-31
2022/05/08 07:33:08;;;;;;;3.42;1.92;;;;;;;19.25;47.13;96744.47;5015853;28;20368;-30
2022/05/08 07:38:21;;;;;;;3.15;2.35;;;;;;;19.20;47.56;96745.13;5008469;28;20032;-29
2022/05/08 07:40:48;;;;;;;3.45;1.90;;;;;;;19.16;47.50;96754.84;5011103;28;20030;-29
2022/05/08 07:43:15;;;;;;;2.38;1.90;;;;;;;19.06;48.23;96759.66;5012232;28;20022;-30
2022/05/08 07:45:42;;;;;;;3.97;2.28;;;;;;;19.19;47.58;96751.09;5012290;28;20108;-29
2022/05/08 07:48:08;;;;;;;6.35;2.08;;;;;;;19.09;47.91;96755.19;5012069;28;20260;-29
2022/05/08 07:50:33;;;;;;;1.95;1.65;;;;;;;19.00;48.12;96762.31;5010480;28;20492;-30
2022/05/08 07:52:59;;;;;;;3.28;1.80;;;;;;;19.16;47.92;96763.09;5011073;28;20033;-30
2022/05/08 07:55:24;;;;;;;4.20;2.05;;;;;;;19.04;48.03;96766.88;5012046;28;20033;-30
2022/05/08 07:57:50;;;;;;;2.95;2.20;;;;;;;18.98;48.35;96766.75;5011795;28;20414;-30
2022/05/08 08:00:15;;;;;;;2.60;1.75;;;;;;;19.18;47.84;96760.59;5011826;28;20029;-29
2022/05/08 08:02:41;;;;;;;3.78;2.17;;;;;;;19.26;47.51;96764.50;5011770;28;20026;-30
2022/05/08 08:05:07;;;;;;;2.83;1.95;;;;;;;19.12;47.90;96765.25;5011527;28;20021;-29
2022/05/08 08:07:33;;;;;;;3.10;1.77;;;;;;;19.13;47.87;96766.78;5011829;28;20036;-30
2022/05/08 08:09:58;;;;;;;5.15;2.00;;;;;;;19.26;47.67;96768.00;5011792;28;20029;-29
2022/05/08 08:12:24;;;;;;;4.18;2.13;;;;;;;19.33;47.26;96767.59;5011874;28;20456;-29
2022/05/08 08:14:50;;;;;;;4.32;1.98;;;;;;;18.99;48.51;96780.03;5011660;28;20032;-29
2022/05/08 08:17:15;;;;;;;3.55;2.22;;;;;;;18.99;48.64;96785.53;5009922;28;20037;-30
2022/05/08 08:19:41;;;;;;;4.75;1.80;;;;;;;18.96;48.96;96780.22;5011668;28;20018;-32
2022/05/08 08:22:06;;;;;;;3.80;2.20;;;;;;;18.91;49.05;96781.66;5011696;28;20032;-29
2022/05/08 08:24:32;;;;;;;4.88;2.33;;;;;;;19.02;48.87;96783.84;5011665;28;20088;-29
2022/05/08 08:26:57;;;;;;;3.17;2.10;;;;;;;19.26;48.12;96781.00;5011316;28;20148;-29
2022/05/08 08:29:23;;;;;;;3.75;2.10;;;;;;;18.80;49.73;96788.91;5011203;28;20044;-29
2022/05/08 08:31:48;;;;;;;3.03;2.15;;;;;;;18.97;49.25;96782.50;5011534;28;20026;-29
2022/05/08 08:34:14;;;;;;;4.25;2.28;;;;;;;18.73;49.92;96786.53;5011479;28;20026;-30
2022/05/08 08:36:39;;;;;;;2.83;2.00;;;;;;;18.74;50.09;96794.31;5011680;28;20061;-34
2022/05/08 08:39:05;;;;;;;5.68;2.80;;;;;;;19.05;49.22;96790.34;5011493;28;20057;-30
2022/05/08 08:41:35;;;;;;;4.97;2.10;;;;;;;18.85;50.36;96791.78;5010641;28;20022;-30
2022/05/08 08:49:50;;;;;;;3.65;2.30;;;;;;;18.95;49.73;96797.94;5009861;28;20060;-31
2022/05/08 08:52:18;;;;;;;11.40;2.47;;;;;;;18.71;50.50;96792.50;5026252;28;20030;-30
2022/05/08 08:54:44;;;;;;;5.57;2.38;;;;;;;18.98;49.69;96789.50;5011086;28;20060;-29
2022/05/08 08:57:09;;;;;;;5.45;2.33;;;;;;;19.04;49.42;96797.13;5026327;28;20461;-29
2022/05/08 08:59:35;;;;;;;4.00;2.10;;;;;;;19.15;49.55;96794.56;5011097;28;20384;-30
2022/05/08 09:02:00;;;;;;;4.03;2.05;;;;;;;19.13;49.21;96791.50;5011906;28;20376;-29
2022/05/08 09:04:26;;;;;;;3.88;2.20;;;;;;;19.18;48.93;96791.59;5013155;28;20014;-31
2022/05/08 09:06:51;;;;;;;2.67;2.05;;;;;;;19.37;48.29;96803.16;5044919;28;20026;-30
2022/05/08 09:09:33;;;;;;;6.22;1.95;;;;;;;18.76;50.39;96800.09;5012944;28;20022;-29
2022/05/08 09:11:59;;;;;;;2.05;1.75;;;;;;;18.96;49.71;96783.72;5013222;28;20022;-30
2022/05/08 09:14:35;;;;;;;4.68;2.10;;;;;;;19.12;49.02;96792.75;5012575;28;20029;-31
2022/05/08 09:17:04;;;;;;;4.07;2.00;;;;;;;18.89;50.32;96792.34;5000374;28;20109;-30
2022/05/08 09:19:31;;;;;;;6.70;2.00;;;;;;;18.55;52.35;96787.41;4990961;28;20393;-30
2022/05/08 09:22:00;;;;;;;7.55;2.20;;;;;;;18.71;51.47;96784.25;4991166;28;20026;-30
2022/05/08 09:24:25;;;;;;;7.22;2.85;;;;;;;18.96;50.50;96791.97;4990946;28;20049;-30
2022/05/08 09:27:08;;;;;;;7.28;2.20;;;;;;;19.01;50.30;96788.56;4991256;28;20082;-29
2022/05/08 09:29:33;;;;;;;6.05;2.58;;;;;;;19.31;49.34;96792.06;4992642;28;20037;-30
2022/05/08 09:31:59;;;;;;;8.05;2.53;;;;;;;19.41;49.20;96800.97;4995155;28;20026;-30
2022/05/08 09:34:24;;;;;;;5.82;2.17;;;;;;;19.41;48.98;96789.22;4994929;28;20031;-30
2022/05/08 09:37:05;;;;;;;11.18;3.20;;;;;;;19.51;48.69;96793.41;4995092;28;20030;-29
2022/05/08 09:39:30;;;;;;;8.23;2.78;;;;;;;19.51;48.55;96809.91;4994976;28;20026;-29
2022/05/08 09:41:56;;;;;;;6.25;2.10;;;;;;;19.49;48.62;96804.88;4994617;28;20031;-30
2022/05/08 09:44:21;;;;;;;4.90;2.10;;;;;;;19.58;48.25;96804.03;4994762;28;20504;-29
2022/05/08 09:46:49;;;;;;;4.53;1.85;;;;;;;19.47;48.73;96803.81;4994789;28;20027;-29
2022/05/08 09:49:19;;;;;;;3.72;2.17;;;;;;;19.61;48.28;96803.06;4994558;28;20050;-30
2022/05/08 09:51:46;;;;;;;4.25;2.28;;;;;;;19.65;48.06;96803.66;4994319;28;20595;-31
2022/05/08 09:54:14;;;;;;;4.25;2.13;;;;;;;19.65;48.02;96812.66;4994685;28;20053;-30
2022/05/08 09:56:42;;;;;;;4.43;1.90;;;;;;;19.67;47.86;96810.16;4994716;28;20033;-30
2022/05/08 09:59:10;;;;;;;4.20;2.35;;;;;;;19.61;48.14;96805.81;4994729;28;20034;-29
2022/05/08 10:01:40;;;;;;;3.53;2.20;;;;;;;19.58;48.41;96810.28;4994677;28;20500;-29
2022/05/08 10:04:06;;;;;;;4.90;1.90;;;;;;;19.72;47.89;96812.25;4992621;28;20108;-30
2022/05/08 10:06:35;;;;;;;4.80;2.10;;;;;;;19.74;47.70;96803.53;4994404;28;20033;-29
2022/05/08 10:14:33;;;;;;;4.90;2.13;;;;;;;19.79;47.66;96800.06;4994122;28;20093;-30
2022/05/08 10:17:06;;;;;;;4.55;1.88;;;;;;;19.81;47.46;96792.09;4993939;28;20488;-30
2022/05/08 10:19:32;;;;;;;5.78;2.50;;;;;;;19.61;48.01;96790.06;4992818;28;20046;-29
2022/05/08 10:22:02;;;;;;;4.25;2.25;;;;;;;19.69;47.82;96785.69;4994226;28;20575;-30
2022/05/08 10:24:34;;;;;;;4.22;2.17;;;;;;;19.71;47.73;96788.72;4994213;28;20030;-30
2022/05/08 10:27:12;;;;;;;4.60;2.00;;;;;;;19.79;47.54;96782.81;5009100;28;20063;-30
2022/05/08 10:29:39;;;;;;;4.10;2.20;;;;;;;19.75;47.70;96787.78;4993763;28;20041;-30
2022/05/08 10:32:09;;;;;;;5.63;2.17;;;;;;;19.83;47.38;96778.63;4994000;28;20026;-29
2022/05/08 10:34:37;;;;;;;5.30;2.35;;;;;;;19.82;47.47;96792.88;4993754;28;20762;-30
2022/05/08 10:37:12;;;;;;;8.60;2.30;;;;;;;19.86;47.44;96785.19;4993849;28;20765;-30
2022/05/08 10:39:47;;;;;;;2.88;2.10;;;;;;;19.71;47.80;96782.47;4993167;28;20034;-30
2022/05/08 10:42:27;;;;;;;3.10;2.20;;;;;;;19.78;47.62;96776.53;4993867;28;20385;-30
2022/05/08 10:44:54;;;;;;;5.93;2.20;;;;;;;19.74;47.29;96781.50;4993696;28;20107;-30
2022/05/08 10:47:32;;;;;;;4.47;2.00;;;;;;;19.81;47.46;96781.09;5008654;28;20034;-30
2022/05/08 10:49:58;;;;;;;4.50;2.42;;;;;;;19.81;47.38;96797.59;4993708;28;20482;-30
2022/05/08 10:52:24;;;;;;;5.25;2.00;;;;;;;19.84;47.21;96791.16;4995596;28;20561;-30
2022/05/08 10:54:56;;;;;;;8.23;2.50;;;;;;;19.90;47.19;96788.50;5012893;28;20053;-30
2022/05/08 10:57:32;;;;;;;4.83;2.30;;;;;;;19.83;47.13;96786.13;5012919;28;20037;-30
2022/05/08 10:59:59;;;;;;;6.00;1.83;;;;;;;19.87;47.12;96786.69;5012967;28;20030;-29
2022/05/08 11:02:54;;;;;;;4.43;2.15;;;;;;;19.95;46.90;96779.53;5013147;28;20029;-29
2022/05/08 11:05:36;;;;;;;5.30;2.50;;;;;;;20.00;46.75;96776.13;5010840;28;20025;-30
2022/05/08 11:08:04;;;;;;;4.70;2.58;;;;;;;19.84;47.24;96776.63;5012890;28;20109;-29
2022/05/08 11:10:34;;;;;;;4.80;2.38;;;;;;;19.98;46.88;96778.59;5012788;28;20527;-30
2022/05/08 11:13:01;;;;;;;6.07;2.28;;;;;;;19.96;47.03;96778.31;5012205;28;20389;-30
2022/05/08 11:15:35;;;;;;;3.75;2.20;;;;;;;19.95;47.07;96774.03;5012468;28;20495;-30
2022/05/08 11:18:07;;;;;;;5.85;2.65;;;;;;;19.99;47.21;96780.09;5012090;28;20030;-30
2022/05/08 11:20:48;;;;;;;8.13;3.00;;;;;;;20.05;46.99;96772.66;5011930;28;20792;-30
2022/05/08 11:23:15;;;;;;;6.47;2.53;;;;;;;20.00;47.23;96765.09;5012487;28;20044;-31
2022/05/08 11:25:44;;;;;;;5.75;2.50;;;;;;;20.01;47.13;96774.88;5012488;28;20049;-30
2022/05/08 11:28:14;;;;;;;5.00;2.38;;;;;;;19.98;47.12;96773.84;5012010;28;20025;-29
2022/05/08 11:30:41;;;;;;;6.60;2.42;;;;;;;20.00;46.93;96770.59;5012472;28;20034;-30
2022/05/08 11:36:04;;;;;;;7.15;2.50;;;;;;;20.02;46.73;96770.88;5012267;28;20033;-31
2022/05/08 11:38:50;;;;;;;6.47;2.80;;;;;;;19.95;46.89;96768.53;5012447;28;20538;-29
2022/05/08 11:41:18;;;;;;;4.10;2.70;;;;;;;19.99;46.82;96760.84;5012252;28;20022;-30
2022/05/08 11:43:44;;;;;;;7.70;2.75;;;;;;;19.95;46.96;96757.50;5012195;28;20025;-30
2022/05/08 11:46:17;;;;;;;5.97;2.95;;;;;;;19.88;46.97;96766.94;5011834;28;20108;-30
2022/05/08 11:48:46;;;;;;;6.55;2.70;;;;;;;19.93;46.88;96759.97;5012070;28;20069;-29
2022/05/08 11:51:13;;;;;;;4.07;2.30;;;;;;;19.93;46.87;96765.50;5011953;28;20444;-30
2022/05/08 11:53:42;;;;;;;6.28;2.50;;;;;;;19.91;46.65;96756.94;5011401;28;20528;-30
2022/05/08 11:56:23;;;;;;;5.40;2.30;;;;;;;19.99;46.36;96747.06;5011873;28;20037;-30
2022/05/08 11:58:49;;;;;;;5.32;2.30;;;;;;;19.92;46.48;96750.97;5011966;28;20080;-31
2022/05/08 12:01:32;;;;;;;5.53;2.42;;;;;;;20.02;46.11;96757.13;5011839;28;20435;-29
2022/05/08 12:04:35;;;;;;;5.22;2.30;;;;;;;19.96;46.23;96753.53;5009542;28;20097;-29